KONT

Ontario International Airport

Airport
ICAO code
KONT
IATA Code
ONT
Summary
ICAO Region
NAM
ICAO Territory
Location

Ontario, California

Serving
Ontario
Elevation
944 ft
Coordinates
34° 3' 39" N , 117° 35' 54" W
KCC
Airport BS
Bird Strike
Airport WX
Fog
Metar
KONT 142329Z 26008KT 4SM -RA BR SCT016 BKN023 OVC050 11/08 A3009 RMK AO2 P0004 T01110083 $

International airport 2 nm east of the city of Ontario, California, USA.

Runways

Designator Length Width Surface Rops
08R/26L 3109 46 CON Yes/Yes
08L/26R 3718 46 PEM Yes/Yes

Airport map

Aerial View

SKYbrary Partners:

Safety knowledge contributed by: